createdAt,value
2022-11-12T00:01:59.809Z,99959.91
2022-11-12T00:05:06.028Z,99956.97
2022-11-12T00:08:12.614Z,99931.47
2022-11-12T00:11:18.845Z,99921.06
2022-11-12T00:14:25.263Z,99913.28
2022-11-12T00:17:31.674Z,99897.19
2022-11-12T00:20:38.150Z,99889.56
2022-11-12T00:23:44.587Z,99875.94
2022-11-12T00:26:50.651Z,99898.75
2022-11-12T00:29:57.177Z,99900.84
2022-11-12T00:33:04.966Z,99920.28
2022-11-12T00:36:11.803Z,99923.03
2022-11-12T00:39:18.295Z,99919.78
2022-11-12T00:42:24.499Z,99899.53
2022-11-12T00:45:30.520Z,99910.63
2022-11-12T00:48:36.696Z,99913.06
2022-11-12T00:51:43.368Z,99931.38
2022-11-12T00:54:49.344Z,99927.25
2022-11-12T00:57:57.712Z,99912.16
2022-11-12T01:01:10.048Z,99924.47
2022-11-12T01:04:16.259Z,99916.84
2022-11-12T01:07:22.660Z,99907.59
2022-11-12T01:10:28.770Z,99894.47
2022-11-12T01:13:37.792Z,99884.91
2022-11-12T01:16:47.822Z,99883.16
2022-11-12T01:19:54.449Z,99878.09
2022-11-12T01:23:00.464Z,99885.75
2022-11-12T01:26:08.312Z,99881.72
2022-11-12T01:29:14.615Z,99864.88
2022-11-12T01:32:20.698Z,99873.50
2022-11-12T01:35:26.587Z,99867.53
2022-11-12T01:38:37.616Z,99865.78
2022-11-12T01:41:44.041Z,99862.03
2022-11-12T01:44:52.066Z,99865.63
2022-11-12T01:47:58.375Z,99868.22
2022-11-12T01:51:07.110Z,99846.00
2022-11-12T01:54:17.865Z,99850.06
2022-11-12T01:57:34.382Z,99856.06
2022-11-12T02:00:41.874Z,99866.28
2022-11-12T02:03:48.144Z,99861.25
2022-11-12T02:06:57.503Z,99859.78
2022-11-12T02:10:05.797Z,99846.16
2022-11-12T02:13:30.775Z,99844.53
2022-11-12T02:16:40.250Z,99836.44
2022-11-12T02:19:47.422Z,99832.06
2022-11-12T02:22:53.275Z,99837.56
2022-11-12T02:26:01.011Z,99837.88
2022-11-12T02:29:07.220Z,99819.25
2022-11-12T02:32:14.306Z,99819.38
2022-11-12T02:35:20.545Z,99804.63
2022-11-12T02:38:27.103Z,99804.34
2022-11-12T02:41:33.294Z,99812.75
2022-11-12T02:44:39.898Z,99812.28
2022-11-12T02:47:45.965Z,99798.66
2022-11-12T02:50:52.526Z,99803.53
2022-11-12T02:53:58.851Z,99790.91
2022-11-12T02:57:04.705Z,99796.25
2022-11-12T03:00:13.393Z,99808.09
2022-11-12T03:03:19.548Z,99794.00
2022-11-12T03:06:25.663Z,99794.66
2022-11-12T03:09:32.137Z,99797.84
2022-11-12T03:12:38.478Z,99795.25
2022-11-12T03:15:44.812Z,99795.13
2022-11-12T03:18:50.973Z,99785.53
2022-11-12T03:21:56.919Z,99789.44
2022-11-12T03:25:03.665Z,99780.53
2022-11-12T03:28:13.389Z,99763.81
2022-11-12T03:31:20.468Z,99753.44
2022-11-12T03:34:26.487Z,99747.25
2022-11-12T03:37:32.444Z,99738.66
2022-11-12T03:40:38.799Z,99756.50
2022-11-12T03:43:45.020Z,99750.97
2022-11-12T03:46:51.226Z,99747.56
2022-11-12T03:49:57.211Z,99757.00
2022-11-12T03:53:04.010Z,99757.00
2022-11-12T03:56:10.184Z,99763.78
2022-11-12T03:59:16.271Z,99750.03
2022-11-12T04:02:22.432Z,99761.53
2022-11-12T04:06:04.148Z,99752.75
2022-11-12T04:09:10.600Z,99752.63
2022-11-12T04:12:55.262Z,99733.63
2022-11-12T04:16:41.452Z,99735.09
2022-11-12T04:20:06.299Z,99723.56
2022-11-12T04:23:12.221Z,99725.50
2022-11-12T04:26:24.477Z,99717.72
2022-11-12T04:29:49.808Z,99734.56
2022-11-12T04:32:56.911Z,99730.50
2022-11-12T04:36:03.894Z,99724.53
2022-11-12T04:39:09.911Z,99717.34
2022-11-12T04:42:34.802Z,99714.44
2022-11-12T04:45:43.556Z,99712.50
2022-11-12T04:48:49.499Z,99714.75
2022-11-12T04:52:07.627Z,99707.13
2022-11-12T04:55:13.833Z,99700.34
2022-11-12T04:58:20.226Z,99720.59
2022-11-12T05:01:26.541Z,99706.00
2022-11-12T05:04:32.714Z,99706.66
2022-11-12T05:07:39.127Z,99698.84
2022-11-12T05:10:45.345Z,99714.44
2022-11-12T05:13:51.721Z,99713.44
2022-11-12T05:16:57.925Z,99695.91
2022-11-12T05:20:04.936Z,99714.56
2022-11-12T05:23:11.440Z,99702.41
2022-11-12T05:26:17.805Z,99695.25
2022-11-12T05:29:24.283Z,99698.31
2022-11-12T05:32:30.239Z,99701.09
2022-11-12T05:35:36.290Z,99704.34
2022-11-12T05:38:42.355Z,99710.81
2022-11-12T05:42:11.495Z,99703.16
2022-11-12T05:45:15.145Z,99682.50
2022-11-12T05:48:24.440Z,99695.31
2022-11-12T05:51:30.961Z,99695.16
2022-11-12T05:54:37.077Z,99690.59
2022-11-12T05:57:42.932Z,99681.19
2022-11-12T06:00:49.344Z,99682.13
2022-11-12T06:03:56.479Z,99688.59
2022-11-12T06:07:04.315Z,99683.41
2022-11-12T06:10:10.366Z,99693.47
2022-11-12T06:13:16.470Z,99688.78
2022-11-12T06:16:22.346Z,99687.97
2022-11-12T06:19:28.705Z,99699.00
2022-11-12T06:22:35.057Z,99690.84
2022-11-12T06:25:41.350Z,99695.72
2022-11-12T06:28:49.248Z,99670.03
2022-11-12T06:31:55.506Z,99664.16
2022-11-12T06:35:01.818Z,99664.16
2022-11-12T06:38:08.314Z,99656.31
2022-11-12T06:41:17.408Z,99666.97
2022-11-12T06:44:24.043Z,99673.78
2022-11-12T06:47:30.279Z,99681.75
2022-11-12T06:50:36.314Z,99675.38
2022-11-12T06:53:42.296Z,99681.75
2022-11-12T06:56:48.272Z,99650.09
2022-11-12T06:59:54.440Z,99647.13
2022-11-12T07:03:00.682Z,99641.44
2022-11-12T07:06:13.128Z,99643.50
2022-11-12T07:09:19.483Z,99636.78
2022-11-12T07:12:25.872Z,99630.66
2022-11-12T07:15:32.138Z,99625.16
2022-11-12T07:18:38.827Z,99635.84
2022-11-12T07:21:45.101Z,99600.31
2022-11-12T07:24:51.352Z,99598.84
2022-11-12T07:27:57.428Z,99578.47
2022-11-12T07:31:06.840Z,99582.34
2022-11-12T07:34:13.063Z,99581.34
2022-11-12T07:37:19.427Z,99567.34
2022-11-12T07:40:25.770Z,99564.00
2022-11-12T07:43:33.654Z,99555.94
2022-11-12T07:46:40.306Z,99549.47
2022-11-12T07:49:46.524Z,99545.97
2022-11-12T07:52:53.161Z,99542.47
2022-11-12T07:56:01.434Z,99557.19
2022-11-12T07:59:08.041Z,99563.47
2022-11-12T08:02:14.259Z,99540.50
2022-11-12T08:05:21.609Z,99541.50
2022-11-12T08:08:30.252Z,99557.38
2022-11-12T08:11:36.557Z,99560.44
2022-11-12T08:14:42.753Z,99547.94
2022-11-12T08:17:51.073Z,99537.00
2022-11-12T08:21:04.733Z,99519.31
2022-11-12T08:24:11.005Z,99508.50
2022-11-12T08:27:17.228Z,99496.31
2022-11-12T08:30:23.738Z,99500.06
2022-11-12T08:33:30.844Z,99485.53
2022-11-12T08:36:37.275Z,99479.88
2022-11-12T08:39:43.706Z,99468.91
2022-11-12T08:43:04.442Z,99470.78
2022-11-12T08:46:10.455Z,99475.53
2022-11-12T08:49:16.347Z,99456.09
2022-11-12T08:52:22.646Z,99461.50
2022-11-12T08:55:35.813Z,99461.75
2022-11-12T08:58:41.855Z,99446.38
2022-11-12T09:01:48.170Z,99441.78
2022-11-12T09:04:54.683Z,99436.66
2022-11-12T09:08:10.252Z,99420.28
2022-11-12T09:11:18.080Z,99402.53
2022-11-12T09:14:24.346Z,99399.81
2022-11-12T09:17:32.640Z,99394.13
2022-11-12T09:20:38.707Z,99397.63
2022-11-12T09:23:44.727Z,99392.78
2022-11-12T09:26:53.911Z,99375.94
2022-11-12T09:30:00.911Z,99376.56
2022-11-12T09:33:07.064Z,99355.72
2022-11-12T09:36:13.162Z,99349.22
2022-11-12T09:39:19.555Z,99373.28
2022-11-12T09:42:25.723Z,99354.78
2022-11-12T09:45:33.130Z,99343.75
2022-11-12T09:48:44.336Z,99320.56
2022-11-12T09:51:55.005Z,99305.50
2022-11-12T09:55:26.101Z,99289.03
2022-11-12T09:58:32.018Z,99295.00
2022-11-12T10:01:41.214Z,99298.63
2022-11-12T10:05:12.488Z,99288.22
2022-11-12T10:08:40.700Z,99285.59
2022-11-12T10:12:22.369Z,99273.72
2022-11-12T10:15:58.166Z,99277.00
2022-11-12T10:19:27.013Z,99273.81
2022-11-12T10:23:11.494Z,99266.41
2022-11-12T10:26:20.638Z,99268.66
2022-11-12T10:29:40.614Z,99267.06
2022-11-12T10:32:48.620Z,99276.28
2022-11-12T10:35:57.148Z,99274.75
2022-11-12T10:39:03.635Z,99250.41
2022-11-12T10:42:13.089Z,99266.06
2022-11-12T10:45:22.096Z,99260.84
2022-11-12T10:48:33.362Z,99251.84
2022-11-12T10:51:40.505Z,99246.84
2022-11-12T10:54:50.979Z,99243.66
2022-11-12T10:58:09.422Z,99236.28
2022-11-12T11:01:17.950Z,99227.63
2022-11-12T11:04:36.137Z,99229.63
2022-11-12T11:07:50.146Z,99224.22
2022-11-12T11:11:21.537Z,99207.00
2022-11-12T11:14:33.540Z,99207.94
2022-11-12T11:17:39.884Z,99196.06
2022-11-12T11:20:56.545Z,99200.66
2022-11-12T11:24:21.781Z,99174.94
2022-11-12T11:27:51.060Z,99174.06
2022-11-12T11:31:16.993Z,99153.22
2022-11-12T11:34:37.593Z,99150.41
2022-11-12T11:38:21.884Z,99131.66
2022-11-12T11:41:30.914Z,99115.88
2022-11-12T11:44:37.173Z,99125.88
2022-11-12T11:48:01.812Z,99104.63
2022-11-12T11:51:36.990Z,99103.19
2022-11-12T11:54:48.874Z,99111.84
2022-11-12T11:58:01.203Z,99087.97
2022-11-12T12:01:26.561Z,99080.16
2022-11-12T12:04:38.819Z,99053.31
2022-11-12T12:08:10.973Z,99054.28
2022-11-12T12:11:41.921Z,99063.88
2022-11-12T12:15:30.483Z,99047.00
2022-11-12T12:18:42.664Z,99038.97
2022-11-12T12:21:51.253Z,99046.78
2022-11-12T12:25:03.645Z,99031.75
2022-11-12T12:28:21.679Z,99017.91
2022-11-12T12:31:36.369Z,99011.28
2022-11-12T12:34:51.338Z,99009.84
2022-11-12T12:38:22.403Z,99003.22
2022-11-12T12:41:39.682Z,99015.19
2022-11-12T12:45:00.982Z,98991.16
2022-11-12T12:48:14.409Z,98991.97
2022-11-12T12:51:21.869Z,98988.13
2022-11-12T12:54:40.408Z,98970.34
2022-11-12T12:57:46.546Z,98959.94
2022-11-12T13:00:59.197Z,98964.38
2022-11-12T13:04:08.959Z,98947.41
2022-11-12T13:07:15.653Z,98941.22
2022-11-12T13:10:49.568Z,98940.44
2022-11-12T13:13:55.892Z,98990.31
2022-11-12T13:17:08.333Z,98952.06
2022-11-12T13:20:33.418Z,98947.69
2022-11-12T13:24:13.228Z,98937.44
2022-11-12T13:27:39.304Z,98929.47
2022-11-12T13:30:45.464Z,98939.06
2022-11-12T13:33:52.498Z,98905.00
2022-11-12T13:37:04.959Z,98914.41
2022-11-12T13:40:15.630Z,98931.25
2022-11-12T13:43:36.180Z,98914.84
2022-11-12T13:46:44.197Z,98924.06
2022-11-12T13:49:50.721Z,98931.66
2022-11-12T13:52:56.742Z,98931.66
2022-11-12T13:56:02.743Z,98929.06
2022-11-12T13:59:16.219Z,98935.88
2022-11-12T14:02:26.831Z,98938.50
2022-11-12T14:05:35.570Z,98940.09
2022-11-12T14:08:53.433Z,98945.91
2022-11-12T14:12:17.629Z,98958.13
2022-11-12T14:15:47.771Z,98923.47
2022-11-12T14:19:02.860Z,98936.47
2022-11-12T14:22:09.161Z,98943.50
2022-11-12T14:25:20.255Z,98952.09
2022-11-12T14:28:31.454Z,98926.06
2022-11-12T14:31:37.930Z,98952.91
2022-11-12T14:34:44.101Z,98920.66
2022-11-12T14:38:00.170Z,98937.06
2022-11-12T14:41:26.101Z,98958.91
2022-11-12T14:44:36.095Z,98947.06
2022-11-12T14:47:42.591Z,98955.28
2022-11-12T14:50:51.502Z,98952.06
2022-11-12T14:54:05.940Z,98969.28
2022-11-12T14:57:22.830Z,98957.22
2022-11-12T15:00:32.110Z,98960.81
2022-11-12T15:03:38.655Z,98976.84
2022-11-12T15:06:55.022Z,98949.84
2022-11-12T15:10:21.420Z,98938.47
2022-11-12T15:13:28.004Z,98928.69
2022-11-12T15:16:36.297Z,98932.88
2022-11-12T15:19:42.854Z,98930.47
2022-11-12T15:22:53.970Z,98933.50
2022-11-12T15:26:01.466Z,98926.66
2022-11-12T15:29:10.324Z,98924.47
2022-11-12T15:32:16.757Z,98939.09
2022-11-12T15:35:26.160Z,98935.47
2022-11-12T15:38:37.868Z,98928.69
2022-11-12T15:41:43.978Z,98964.16
2022-11-12T15:44:57.138Z,98931.72
2022-11-12T15:48:03.365Z,98920.94
2022-11-12T15:51:20.769Z,98958.56
2022-11-12T15:54:27.015Z,98945.19
2022-11-12T15:57:41.000Z,98954.97
2022-11-12T16:00:51.510Z,98922.75
2022-11-12T16:03:57.936Z,98926.53
2022-11-12T16:07:07.009Z,98931.91
2022-11-12T16:10:18.522Z,98924.09
2022-11-12T16:13:31.068Z,98915.72
2022-11-12T16:16:39.340Z,98924.13
2022-11-12T16:19:45.387Z,98927.38
2022-11-12T16:22:52.478Z,98925.19
2022-11-12T16:25:58.429Z,98926.59
2022-11-12T16:29:12.943Z,98940.81
2022-11-12T16:32:18.951Z,98947.25
2022-11-12T16:35:25.757Z,98937.44
2022-11-12T16:38:31.597Z,98920.19
2022-11-12T16:41:37.489Z,98924.19
2022-11-12T16:44:43.355Z,98939.63
2022-11-12T16:47:56.493Z,98952.25
2022-11-12T16:51:02.402Z,98918.19
2022-11-12T16:54:08.440Z,98920.19
2022-11-12T16:57:14.661Z,98941.03
2022-11-12T17:00:20.924Z,98938.81
2022-11-12T17:03:27.173Z,98957.47
2022-11-12T17:06:36.770Z,98923.38
2022-11-12T17:09:43.291Z,98948.84
2022-11-12T17:12:53.362Z,98938.00
2022-11-12T17:16:00.076Z,98951.44
2022-11-12T17:19:06.325Z,98959.88
2022-11-12T17:22:12.717Z,98956.84
2022-11-12T17:25:18.743Z,98969.88
2022-11-12T17:28:24.823Z,98976.91
2022-11-12T17:31:31.459Z,98975.72
2022-11-12T17:34:37.817Z,98987.53
2022-11-12T17:37:44.941Z,98990.94
2022-11-12T17:40:54.805Z,98980.72
2022-11-12T17:44:01.827Z,99014.38
2022-11-12T17:47:08.143Z,98999.94
2022-11-12T17:50:14.500Z,99006.75
2022-11-12T17:53:20.926Z,98981.47
2022-11-12T17:56:27.215Z,98997.13
2022-11-12T17:59:33.542Z,98978.47
2022-11-12T18:02:39.616Z,98991.50
2022-11-12T18:05:45.921Z,98973.22
2022-11-12T18:08:57.450Z,99003.25
2022-11-12T18:12:03.913Z,98995.41
2022-11-12T18:15:11.353Z,99001.03
2022-11-12T18:18:18.736Z,98993.63
2022-11-12T18:21:26.358Z,98988.16
2022-11-12T18:24:32.536Z,98998.97
2022-11-12T18:27:38.564Z,98996.19
2022-11-12T18:30:44.859Z,98987.16
2022-11-12T18:33:53.288Z,98990.97
2022-11-12T18:36:59.213Z,99002.19
2022-11-12T18:40:06.057Z,99001.19
2022-11-12T18:43:12.192Z,99017.22
2022-11-12T18:46:18.454Z,99004.97
2022-11-12T18:49:24.938Z,99020.16
2022-11-12T18:52:33.603Z,99014.56
2022-11-12T18:55:39.798Z,99030.75
2022-11-12T18:58:46.447Z,99024.69
2022-11-12T19:01:52.736Z,99028.88
2022-11-12T19:04:58.767Z,99027.47
2022-11-12T19:08:05.143Z,99034.84
2022-11-12T19:11:13.533Z,99044.84
2022-11-12T19:14:19.589Z,99054.50
2022-11-12T19:17:30.511Z,99066.97
2022-11-12T19:20:37.249Z,99095.31
2022-11-12T19:23:44.265Z,99093.53
2022-11-12T19:26:51.522Z,99086.56
2022-11-12T19:30:02.625Z,99093.59
2022-11-12T19:33:09.498Z,99104.03
2022-11-12T19:36:18.186Z,99104.03
2022-11-12T19:39:24.441Z,99081.59
2022-11-12T19:42:30.495Z,99081.59
2022-11-12T19:45:36.397Z,99076.75
2022-11-12T19:48:43.202Z,99081.97
2022-11-12T19:51:49.614Z,99093.41
2022-11-12T19:54:56.130Z,99074.94
2022-11-12T19:58:02.308Z,99089.56
2022-11-12T20:01:11.463Z,99097.38
2022-11-12T20:04:22.993Z,99095.78
2022-11-12T20:07:30.705Z,99089.56
2022-11-12T20:10:36.925Z,99111.41
2022-11-12T20:13:43.735Z,99092.16
2022-11-12T20:16:50.941Z,99089.97
2022-11-12T20:19:57.022Z,99077.72
2022-11-12T20:23:03.277Z,99067.44
2022-11-12T20:26:11.483Z,99081.41
2022-11-12T20:29:17.703Z,99064.22
2022-11-12T20:32:23.382Z,99099.09
2022-11-12T20:35:29.479Z,99081.88
2022-11-12T20:38:39.953Z,99087.28
2022-11-12T20:41:46.187Z,99078.63
2022-11-12T20:44:53.702Z,99125.03
2022-11-12T20:47:59.983Z,99079.50
2022-11-12T20:51:23.193Z,99093.25
2022-11-12T20:54:30.344Z,99067.56
2022-11-12T20:57:36.462Z,99082.31
2022-11-12T21:00:43.295Z,99084.84
2022-11-12T21:03:49.332Z,99072.59
2022-11-12T21:06:59.779Z,99064.56
2022-11-12T21:10:10.015Z,99064.91
2022-11-12T21:13:16.217Z,99077.50
2022-11-12T21:16:22.335Z,99073.66
2022-11-12T21:19:28.638Z,99078.84
2022-11-12T21:22:34.511Z,99069.47
2022-11-12T21:25:40.642Z,99055.66
2022-11-12T21:28:52.755Z,99090.38
2022-11-12T21:31:58.914Z,99068.97
2022-11-12T21:35:05.429Z,99097.38
2022-11-12T21:38:11.794Z,99064.31
2022-11-12T21:41:20.782Z,99068.69
2022-11-12T21:44:27.107Z,99073.47
2022-11-12T21:47:33.614Z,99071.22
2022-11-12T21:50:39.876Z,99085.41
2022-11-12T21:53:46.526Z,99103.41
2022-11-12T21:56:52.532Z,99077.84
2022-11-12T22:00:19.500Z,99103.03
2022-11-12T22:03:25.167Z,99124.63
2022-11-12T22:06:31.627Z,99101.06
2022-11-12T22:09:37.854Z,99124.78
2022-11-12T22:13:04.815Z,99116.88
2022-11-12T22:16:15.989Z,99139.28
2022-11-12T22:19:23.724Z,99138.72
2022-11-12T22:22:29.813Z,99132.38
2022-11-12T22:25:35.687Z,99146.72
2022-11-12T22:28:41.742Z,99135.69
2022-11-12T22:31:47.668Z,99154.09
2022-11-12T22:34:53.782Z,99136.88
2022-11-12T22:37:59.687Z,99158.41
2022-11-12T22:41:11.501Z,99144.50
2022-11-12T22:44:18.962Z,99138.25
2022-11-12T22:47:25.042Z,99129.75
2022-11-12T22:50:31.247Z,99140.47
2022-11-12T22:53:37.214Z,99175.31
2022-11-12T22:56:43.137Z,99142.16
2022-11-12T22:59:49.417Z,99130.38
2022-11-12T23:02:55.569Z,99145.63
2022-11-12T23:06:04.338Z,99144.47
2022-11-12T23:09:15.069Z,99147.06
2022-11-12T23:12:21.232Z,99196.25
2022-11-12T23:15:30.934Z,99143.88
2022-11-12T23:18:37.598Z,99151.50
2022-11-12T23:21:43.822Z,99139.97
2022-11-12T23:24:49.907Z,99161.09
2022-11-12T23:27:55.850Z,99153.47
2022-11-12T23:31:03.774Z,99179.03
2022-11-12T23:34:10.005Z,99169.44
2022-11-12T23:37:15.792Z,99157.63
2022-11-12T23:40:21.812Z,99147.22
2022-11-12T23:43:28.023Z,99142.75
2022-11-12T23:46:33.883Z,99157.75
2022-11-12T23:49:39.937Z,99154.69
2022-11-12T23:52:46.688Z,99169.22
2022-11-12T23:55:53.363Z,99173.97
2022-11-12T23:58:59.482Z,99179.97
